Guy, Arkansas
Current Conditions -  °F | °C
As of 8:35 PM on Wednesday 17 Dec 2014 (Local Time) from KCCA Reporting Station
Light Rain Light Rain  
Wind Chill: 37°   Ceiling: 3400
Heat Index: 37°   Visibility: 3mi
Dew Point: 36°   Wind: 0mph
Humidity: 93%   Direction: NA
Pressure: 30.29"   Gusts: NA
Location:  35.33°N, 92.33°W
Report Text: KCCA 180235Z AUTO 00000KT 3SM -RA FEW006 SCT014 BKN034 03/02 A3029 RMK AO2 P0004
Loading
Personal Weather Stations






























Interactive Weather Map New forecast layout! Learn more

10-Day Weather Forecast

Advertisements
Track Severe Weather on mobile